地図

経路データ

SID SEASON NUMBER BASIN SUBBASIN NAME ISO_TIME NATURE LAT LON WMO_WIND WMO_PRES WMO_AGENCY TRACK_TYPE DIST2LAND LANDFALL IFLAG USA_AGENCY USA_ATCF_ID USA_LAT USA_LON USA_RECORD USA_STATUS USA_WIND USA_PRES USA_SSHS USA_R34_NE USA_R34_SE USA_R34_SW USA_R34_NW USA_R50_NE USA_R50_SE USA_R50_SW USA_R50_NW USA_R64_NE USA_R64_SE USA_R64_SW USA_R64_NW USA_POCI USA_ROCI USA_RMW USA_EYE TOKYO_LAT TOKYO_LON TOKYO_GRADE TOKYO_WIND TOKYO_PRES TOKYO_R50_DIR TOKYO_R50_LONG TOKYO_R50_SHORT TOKYO_R30_DIR TOKYO_R30_LONG TOKYO_R30_SHORT TOKYO_LAND CMA_LAT CMA_LON CMA_CAT CMA_WIND CMA_PRES HKO_LAT HKO_LON HKO_CAT HKO_WIND HKO_PRES NEWDELHI_LAT NEWDELHI_LON NEWDELHI_GRADE NEWDELHI_WIND NEWDELHI_PRES NEWDELHI_CI NEWDELHI_DP NEWDELHI_POCI REUNION_LAT REUNION_LON REUNION_TYPE REUNION_WIND REUNION_PRES REUNION_TNUM REUNION_CI REUNION_RMW REUNION_R34_NE REUNION_R34_SE REUNION_R34_SW REUNION_R34_NW REUNION_R50_NE REUNION_R50_SE REUNION_R50_SW REUNION_R50_NW REUNION_R64_NE REUNION_R64_SE REUNION_R64_SW REUNION_R64_NW BOM_LAT BOM_LON BOM_TYPE BOM_WIND BOM_PRES BOM_TNUM BOM_CI BOM_RMW BOM_R34_NE BOM_R34_SE BOM_R34_SW BOM_R34_NW BOM_R50_NE BOM_R50_SE BOM_R50_SW BOM_R50_NW BOM_R64_NE BOM_R64_SE BOM_R64_SW BOM_R64_NW BOM_ROCI BOM_POCI BOM_EYE BOM_POS_METHOD BOM_PRES_METHOD NADI_LAT NADI_LON NADI_CAT NADI_WIND NADI_PRES WELLINGTON_LAT WELLINGTON_LON WELLINGTON_WIND WELLINGTON_PRES DS824_LAT DS824_LON DS824_STAGE DS824_WIND DS824_PRES TD9636_LAT TD9636_LON TD9636_STAGE TD9636_WIND TD9636_PRES TD9635_LAT TD9635_LON TD9635_WIND TD9635_PRES TD9635_ROCI NEUMANN_LAT NEUMANN_LON NEUMANN_CLASS NEUMANN_WIND NEUMANN_PRES MLC_LAT MLC_LON MLC_CLASS MLC_WIND MLC_PRES USA_GUST BOM_GUST BOM_GUST_PER REUNION_GUST REUNION_GUST_PER USA_SEAHGT USA_SEARAD_NE USA_SEARAD_SE USA_SEARAD_SW USA_SEARAD_NW STORM_SPEED STORM_DIR
1994219N19252 1994 62 EP MM HECTOR 1994-08-07 00:00:00 TS 18.7000 -107.800 25 1009 hurdat_epa main 281 281 O_____________ hurdat_epa EP091994 18.7000 -107.800 TD 25 1009 -1 6 311
1994219N19252 1994 62 EP MM HECTOR 1994-08-07 03:00:00 TS 18.8875 -108.028 main 289 289 P_____________ EP091994 18.8875 -108.028 TD 27 1008 -1 6 310
1994219N19252 1994 62 EP MM HECTOR 1994-08-07 06:00:00 TS 19.1000 -108.300 30 1008 hurdat_epa main 308 308 O_____________ hurdat_epa EP091994 19.1000 -108.300 TD 30 1008 -1 7 308
1994219N19252 1994 62 EP MM HECTOR 1994-08-07 09:00:00 TS 19.3501 -108.642 main 323 323 P_____________ EP091994 19.3501 -108.642 TD 32 1006 -1 8 307
1994219N19252 1994 62 EP MM HECTOR 1994-08-07 12:00:00 TS 19.6000 -109.000 35 1005 hurdat_epa main 356 350 O_____________ hurdat_epa EP091994 19.6000 -109.000 TS 35 1005 0 8 305
1994219N19252 1994 62 EP MM HECTOR 1994-08-07 15:00:00 TS 19.7849 -109.308 main 350 324 P_____________ EP091994 19.7849 -109.308 TS 37 1003 0 7 305
1994219N19252 1994 62 EP MM HECTOR 1994-08-07 18:00:00 TS 20.0000 -109.600 40 1002 hurdat_epa main 324 290 O_____________ hurdat_epa EP091994 20.0000 -109.600 TS 40 1002 0 8 315
1994219N19252 1994 62 EP MM HECTOR 1994-08-07 21:00:00 TS 20.3349 -109.885 main 290 246 P_____________ EP091994 20.3349 -109.885 TS 42 1001 0 9 321
1994219N19252 1994 62 EP MM HECTOR 1994-08-08 00:00:00 TS 20.7000 -110.200 45 1000 hurdat_epa main 246 218 O_____________ hurdat_epa EP091994 20.7000 -110.200 TS 45 1000 0 9 315
1994219N19252 1994 62 EP MM HECTOR 1994-08-08 03:00:00 TS 21.0075 -110.593 main 221 201 P_____________ EP091994 21.0075 -110.593 TS 47 999 0 10 309
1994219N19252 1994 62 EP MM HECTOR 1994-08-08 06:00:00 TS 21.3000 -111.000 50 998 hurdat_epa main 206 197 O_____________ hurdat_epa EP091994 21.3000 -111.000 TS 50 998 0 9 310
1994219N19252 1994 62 EP MM HECTOR 1994-08-08 09:00:00 TS 21.5923 -111.343 main 197 196 P_____________ EP091994 21.5923 -111.343 TS 52 995 0 9 313
1994219N19252 1994 62 EP MM HECTOR 1994-08-08 12:00:00 TS 21.9000 -111.700 55 993 hurdat_epa main 207 207 O_____________ hurdat_epa EP091994 21.9000 -111.700 TS 55 993 0 10 312
1994219N19252 1994 62 EP MM HECTOR 1994-08-08 15:00:00 TS 22.2349 -112.120 main 227 219 P_____________ EP091994 22.2349 -112.120 TS 52 995 0 11 310
1994219N19252 1994 62 EP MM HECTOR 1994-08-08 18:00:00 TS 22.6000 -112.600 50 998 hurdat_epa main 225 213 O_____________ hurdat_epa EP091994 22.6000 -112.600 TS 50 998 0 12 309
1994219N19252 1994 62 EP MM HECTOR 1994-08-08 21:00:00 TS 23.0000 -113.142 main 213 210 P_____________ EP091994 23.0000 -113.142 TS 47 1000 0 13 308
1994219N19252 1994 62 EP MM HECTOR 1994-08-09 00:00:00 TS 23.4000 -113.700 45 1002 hurdat_epa main 217 217 O_____________ hurdat_epa EP091994 23.4000 -113.700 TS 45 1002 0 13 309
1994219N19252 1994 62 EP MM HECTOR 1994-08-09 03:00:00 TS 23.7872 -114.200 main 231 231 P_____________ EP091994 23.7872 -114.200 TS 42 1004 0 12 307
1994219N19252 1994 62 EP MM HECTOR 1994-08-09 06:00:00 TS 24.1000 -114.700 40 1006 hurdat_epa main 264 264 O_____________ hurdat_epa EP091994 24.1000 -114.700 TS 40 1006 0 11 297
1994219N19252 1994 62 EP MM HECTOR 1994-08-09 09:00:00 TS 24.2724 -115.243 main 308 308 P_____________ EP091994 24.2724 -115.243 TS 35 1007 0 10 287
1994219N19252 1994 62 EP MM HECTOR 1994-08-09 12:00:00 TS 24.4000 -115.800 30 1009 hurdat_epa main 338 338 O_____________ hurdat_epa EP091994 24.4000 -115.800 TD 30 1009 -1 11 287
1994219N19252 1994 62 EP MM HECTOR 1994-08-09 15:00:00 TS 24.5804 -116.352 main 352 349 P_____________ EP091994 24.5804 -116.352 TD 27 1009 -1 11 292
1994219N19252 1994 62 EP MM HECTOR 1994-08-09 18:00:00 TS 24.8000 -116.900 25 1009 hurdat_epa main 366 O_____________ hurdat_epa EP091994 24.8000 -116.900 TD 25 1009 -1 11 294

IBTrACS Databaseについて

本データベースは、米国NOAAが公開する1842年以降の世界の熱帯低気圧のベストトラックデータアーカイブInternational Best Track Archive for Climate Stewardship (IBTrACS)を、ウェブで閲覧しやすい形式に変換したものです。

最終更新日:2021-10-27